createdAt,value
2019-05-26T00:02:24.591Z,9.40
2019-05-26T00:04:50.620Z,9.30
2019-05-26T00:07:29.671Z,9.30
2019-05-26T00:09:44.714Z,9.30
2019-05-26T00:12:10.769Z,9.30
2019-05-26T00:14:36.801Z,9.30
2019-05-26T00:17:02.848Z,9.30
2019-05-26T00:19:28.884Z,9.20
2019-05-26T00:21:54.962Z,9.20
2019-05-26T00:24:21.072Z,9.20
2019-05-26T00:26:47.109Z,9.20
2019-05-26T00:29:13.135Z,9.10
2019-05-26T00:31:39.188Z,9.10
2019-05-26T00:34:05.235Z,9.10
2019-05-26T00:36:31.273Z,9.00
2019-05-26T00:38:57.321Z,9.00
2019-05-26T00:41:23.460Z,8.90
2019-05-26T00:43:49.509Z,8.90
2019-05-26T00:46:15.569Z,8.90
2019-05-26T00:48:41.731Z,8.90
2019-05-26T00:51:07.801Z,8.90
2019-05-26T00:53:33.948Z,8.80
2019-05-26T00:56:00.037Z,8.80
2019-05-26T00:58:26.266Z,8.70
2019-05-26T01:00:52.316Z,8.70
2019-05-26T01:03:18.359Z,8.80
2019-05-26T01:05:44.390Z,8.80
2019-05-26T01:08:10.616Z,8.70
2019-05-26T01:10:36.774Z,8.60
2019-05-26T01:13:04.407Z,8.50
2019-05-26T01:15:30.440Z,8.50
2019-05-26T01:17:56.505Z,8.50
2019-05-26T01:20:22.656Z,8.50
2019-05-26T01:22:48.718Z,8.40
2019-05-26T01:25:14.773Z,8.40
2019-05-26T01:27:40.896Z,8.30
2019-05-26T01:30:07.820Z,8.30
2019-05-26T01:32:33.946Z,8.30
2019-05-26T01:34:59.963Z,8.30
2019-05-26T01:37:26.227Z,8.20
2019-05-26T01:39:52.251Z,8.20
2019-05-26T01:42:18.487Z,8.20
2019-05-26T01:44:44.531Z,8.20
2019-05-26T01:47:10.578Z,8.20
2019-05-26T01:49:36.619Z,8.20
2019-05-26T01:52:02.703Z,8.10
2019-05-26T01:54:28.743Z,8.10
2019-05-26T01:56:54.802Z,8.10
2019-05-26T01:59:20.827Z,8.10
2019-05-26T02:01:46.852Z,8.10
2019-05-26T02:04:13.007Z,8.10
2019-05-26T02:06:39.057Z,8.00
2019-05-26T02:09:06.808Z,8.00
2019-05-26T02:11:32.848Z,7.90
2019-05-26T02:13:58.924Z,7.90
2019-05-26T02:16:25.031Z,7.90
2019-05-26T02:18:51.123Z,7.90
2019-05-26T02:21:17.211Z,7.90
2019-05-26T02:23:43.242Z,7.90
2019-05-26T02:26:09.276Z,7.90
2019-05-26T02:28:35.407Z,7.90
2019-05-26T02:31:01.565Z,7.90
2019-05-26T02:33:27.624Z,7.80
2019-05-26T02:35:53.672Z,7.80
2019-05-26T02:38:19.712Z,7.80
2019-05-26T02:40:45.778Z,7.80
2019-05-26T02:43:11.818Z,7.80
2019-05-26T02:45:37.980Z,7.70
2019-05-26T02:48:04.119Z,7.70
2019-05-26T02:50:30.303Z,7.70
2019-05-26T02:52:56.451Z,7.70
2019-05-26T02:55:22.595Z,7.70
2019-05-26T02:57:48.674Z,7.70
2019-05-26T03:00:18.525Z,7.70
2019-05-26T03:02:44.771Z,7.70
2019-05-26T03:05:11.752Z,7.70
2019-05-26T03:07:40.287Z,7.70
2019-05-26T03:10:08.335Z,7.60
2019-05-26T03:12:38.194Z,7.50
2019-05-26T03:15:06.431Z,7.50
2019-05-26T03:17:32.899Z,7.40
2019-05-26T03:20:00.346Z,7.40
2019-05-26T03:22:26.980Z,7.40
2019-05-26T03:24:53.457Z,7.40
2019-05-26T03:27:21.215Z,7.30
2019-05-26T03:29:47.257Z,7.30
2019-05-26T03:32:13.327Z,7.30
2019-05-26T03:34:39.378Z,7.30
2019-05-26T03:37:05.459Z,7.20
2019-05-26T03:39:43.600Z,7.20
2019-05-26T03:41:59.455Z,7.20
2019-05-26T03:44:26.453Z,7.10
2019-05-26T03:46:52.499Z,7.10
2019-05-26T03:49:18.629Z,7.10
2019-05-26T03:51:44.726Z,7.10
2019-05-26T03:54:10.748Z,7.10
2019-05-26T03:56:36.805Z,7.10
2019-05-26T03:59:03.160Z,7.10
2019-05-26T04:01:29.212Z,7.10
2019-05-26T04:03:55.364Z,7.10
2019-05-26T04:06:21.405Z,7.10
2019-05-26T04:08:47.542Z,7.00
2019-05-26T04:11:13.814Z,7.00
2019-05-26T04:13:39.869Z,7.00
2019-05-26T04:16:05.927Z,7.00
2019-05-26T04:18:31.994Z,7.00
2019-05-26T04:20:58.035Z,7.10
2019-05-26T04:23:24.185Z,7.10
2019-05-26T04:25:50.251Z,7.10
2019-05-26T04:28:16.474Z,7.10
2019-05-26T04:30:42.530Z,7.20
2019-05-26T04:33:08.677Z,7.30
2019-05-26T04:35:34.740Z,7.30
2019-05-26T04:38:00.786Z,7.30
2019-05-26T04:40:28.181Z,7.40
2019-05-26T04:42:54.443Z,7.40
2019-05-26T04:45:20.502Z,7.40
2019-05-26T04:47:46.576Z,7.50
2019-05-26T04:50:13.029Z,7.50
2019-05-26T04:52:39.093Z,7.50
2019-05-26T04:55:07.085Z,7.50
2019-05-26T04:57:33.199Z,7.60
2019-05-26T04:59:59.233Z,7.60
2019-05-26T05:02:25.264Z,7.70
2019-05-26T05:04:51.429Z,7.70
2019-05-26T05:07:17.485Z,7.80
2019-05-26T05:09:43.563Z,7.80
2019-05-26T05:12:09.604Z,7.90
2019-05-26T05:14:35.652Z,8.00
2019-05-26T05:17:01.882Z,8.20
2019-05-26T05:19:27.918Z,8.20
2019-05-26T05:21:53.943Z,8.30
2019-05-26T05:24:19.991Z,8.40
2019-05-26T05:26:46.028Z,8.50
2019-05-26T05:29:12.094Z,8.60
2019-05-26T05:31:38.119Z,8.70
2019-05-26T05:34:04.198Z,8.70
2019-05-26T05:36:30.251Z,8.80
2019-05-26T05:38:56.287Z,8.90
2019-05-26T05:41:22.330Z,9.00
2019-05-26T05:43:48.368Z,9.10
2019-05-26T05:46:14.398Z,9.20
2019-05-26T05:48:40.475Z,9.30
2019-05-26T05:51:06.624Z,9.40
2019-05-26T05:53:32.671Z,9.50
2019-05-26T05:55:58.716Z,9.60
2019-05-26T05:58:24.752Z,9.70
2019-05-26T06:00:50.895Z,9.80
2019-05-26T06:03:18.696Z,9.90
2019-05-26T06:05:44.892Z,10.10
2019-05-26T06:08:10.975Z,10.20
2019-05-26T06:10:37.020Z,10.30
2019-05-26T06:13:03.391Z,10.40
2019-05-26T06:15:29.429Z,10.50
2019-05-26T06:17:55.477Z,10.60
2019-05-26T06:20:21.556Z,10.70
2019-05-26T06:22:47.615Z,10.90
2019-05-26T06:25:13.939Z,10.90
2019-05-26T06:27:40.015Z,11.00
2019-05-26T06:30:07.761Z,11.00
2019-05-26T06:32:33.788Z,11.10
2019-05-26T06:34:59.815Z,11.20
2019-05-26T06:37:25.851Z,11.30
2019-05-26T06:39:51.922Z,11.40
2019-05-26T06:42:18.603Z,11.50
2019-05-26T06:44:53.618Z,11.60
2019-05-26T06:47:12.607Z,11.60
2019-05-26T06:49:38.652Z,11.70
2019-05-26T06:52:04.731Z,11.80
2019-05-26T06:54:30.790Z,12.00
2019-05-26T06:56:56.877Z,12.10
2019-05-26T06:59:22.919Z,12.10
2019-05-26T07:01:49.061Z,12.20
2019-05-26T07:04:15.147Z,12.30
2019-05-26T07:06:41.171Z,12.40
2019-05-26T07:09:07.259Z,12.50
2019-05-26T07:11:47.101Z,12.50
2019-05-26T07:14:01.752Z,12.60
2019-05-26T07:16:37.907Z,12.70
2019-05-26T07:18:57.161Z,12.80
2019-05-26T07:21:23.173Z,12.90
2019-05-26T07:23:49.236Z,12.90
2019-05-26T07:26:15.308Z,13.00
2019-05-26T07:28:41.355Z,13.10
2019-05-26T07:31:07.701Z,13.20
2019-05-26T07:33:33.764Z,13.40
2019-05-26T07:35:59.812Z,13.50
2019-05-26T07:38:25.962Z,13.50
2019-05-26T07:40:52.034Z,13.60
2019-05-26T07:43:18.090Z,13.60
2019-05-26T07:45:44.308Z,13.60
2019-05-26T07:48:10.353Z,13.70
2019-05-26T07:50:36.518Z,13.80
2019-05-26T07:53:02.658Z,13.90
2019-05-26T07:55:28.707Z,14.00
2019-05-26T07:57:54.862Z,14.10
2019-05-26T08:00:21.447Z,14.10
2019-05-26T08:02:47.468Z,14.20
2019-05-26T08:05:13.638Z,14.30
2019-05-26T08:07:39.705Z,14.40
2019-05-26T08:10:06.952Z,14.50
2019-05-26T08:12:33.125Z,14.50
2019-05-26T08:14:59.259Z,14.60
2019-05-26T08:17:25.297Z,14.70
2019-05-26T08:19:51.420Z,14.70
2019-05-26T08:22:17.548Z,14.80
2019-05-26T08:24:43.586Z,15.00
2019-05-26T08:27:09.640Z,15.10
2019-05-26T08:29:35.672Z,15.20
2019-05-26T08:32:01.861Z,15.30
2019-05-26T08:34:27.947Z,15.40
2019-05-26T08:36:54.064Z,15.50
2019-05-26T08:39:20.123Z,15.60
2019-05-26T08:41:46.177Z,15.80
2019-05-26T08:44:12.210Z,15.90
2019-05-26T08:46:38.267Z,15.90
2019-05-26T08:49:04.412Z,16.10
2019-05-26T08:51:30.454Z,16.40
2019-05-26T08:53:56.537Z,16.50
2019-05-26T08:56:22.682Z,16.60
2019-05-26T08:58:48.730Z,16.80
2019-05-26T09:01:14.789Z,17.00
2019-05-26T09:03:40.840Z,17.10
2019-05-26T09:06:06.889Z,17.20
2019-05-26T09:08:33.011Z,17.30
2019-05-26T09:10:59.062Z,17.40
2019-05-26T09:13:25.099Z,17.50
2019-05-26T09:15:51.157Z,17.70
2019-05-26T09:18:17.187Z,18.00
2019-05-26T09:20:43.323Z,18.10
2019-05-26T09:23:09.465Z,18.30
2019-05-26T09:25:35.570Z,18.40
2019-05-26T09:28:01.609Z,18.50
2019-05-26T09:30:27.709Z,18.70
2019-05-26T09:32:53.750Z,19.00
2019-05-26T09:35:19.812Z,19.20
2019-05-26T09:37:45.871Z,19.30
2019-05-26T09:40:12.416Z,19.40
2019-05-26T09:42:38.481Z,19.50
2019-05-26T09:45:08.974Z,19.70
2019-05-26T09:47:35.097Z,19.90
2019-05-26T09:50:01.454Z,20.00
2019-05-26T09:52:27.571Z,20.10
2019-05-26T09:54:53.662Z,20.30
2019-05-26T09:57:19.696Z,20.00
2019-05-26T09:59:45.719Z,19.90
2019-05-26T10:02:11.782Z,19.90
2019-05-26T10:04:37.861Z,19.70
2019-05-26T10:07:03.887Z,19.80
2019-05-26T10:09:30.039Z,19.90
2019-05-26T10:11:56.106Z,19.90
2019-05-26T10:14:22.140Z,20.00
2019-05-26T10:16:48.221Z,20.30
2019-05-26T10:19:14.304Z,20.60
2019-05-26T10:21:40.360Z,21.00
2019-05-26T10:24:06.577Z,21.20
2019-05-26T10:26:32.700Z,21.20
2019-05-26T10:29:00.766Z,21.20
2019-05-26T10:31:26.814Z,21.30
2019-05-26T10:33:52.835Z,21.00
2019-05-26T10:36:18.881Z,21.20
2019-05-26T10:38:44.899Z,21.40
2019-05-26T10:41:10.971Z,21.40
2019-05-26T10:43:46.793Z,21.20
2019-05-26T10:46:04.988Z,21.30
2019-05-26T10:48:31.037Z,21.40
2019-05-26T10:50:57.168Z,21.50
2019-05-26T10:53:23.232Z,21.60
2019-05-26T10:55:49.371Z,21.80
2019-05-26T10:58:15.539Z,22.00
2019-05-26T11:00:41.586Z,21.70
2019-05-26T11:03:07.623Z,21.50
2019-05-26T11:05:34.144Z,21.50
2019-05-26T11:08:00.191Z,21.70
2019-05-26T11:10:26.231Z,21.90
2019-05-26T11:12:52.275Z,22.00
2019-05-26T11:21:22.031Z,21.70
2019-05-26T11:23:48.165Z,22.00
2019-05-26T11:26:14.212Z,22.20
2019-05-26T11:28:40.283Z,22.20
2019-05-26T11:31:06.936Z,22.10
2019-05-26T11:33:33.018Z,22.00
2019-05-26T11:35:59.129Z,22.00
2019-05-26T11:38:25.167Z,22.00
2019-05-26T11:40:51.264Z,22.00
2019-05-26T11:43:17.688Z,21.90
2019-05-26T11:45:43.826Z,21.70
2019-05-26T11:48:09.886Z,21.60
2019-05-26T11:50:35.923Z,21.60
2019-05-26T11:53:01.978Z,21.60
2019-05-26T11:55:28.065Z,21.40
2019-05-26T11:57:54.153Z,21.40
2019-05-26T12:00:20.919Z,21.30
2019-05-26T12:02:47.075Z,21.30
2019-05-26T12:05:17.533Z,21.20
2019-05-26T12:07:42.514Z,21.20
2019-05-26T12:10:12.712Z,21.20
2019-05-26T12:12:36.967Z,21.00
2019-05-26T12:15:06.108Z,21.10
2019-05-26T12:17:32.192Z,21.10
2019-05-26T12:19:58.313Z,21.10
2019-05-26T12:22:24.360Z,21.00
2019-05-26T12:24:50.412Z,21.10
2019-05-26T12:27:19.126Z,21.30
2019-05-26T12:29:45.233Z,21.50
2019-05-26T12:32:11.495Z,21.60
2019-05-26T12:34:37.618Z,21.90
2019-05-26T12:37:03.714Z,21.90
2019-05-26T12:39:29.778Z,21.90
2019-05-26T12:41:55.931Z,22.00
2019-05-26T12:44:21.951Z,22.00
2019-05-26T12:46:48.055Z,22.10
2019-05-26T12:49:14.252Z,22.20
2019-05-26T12:51:40.347Z,22.20
2019-05-26T12:54:06.440Z,22.20
2019-05-26T12:56:32.470Z,22.30
2019-05-26T12:58:58.565Z,22.30
2019-05-26T13:01:24.627Z,22.20
2019-05-26T13:03:50.716Z,22.10
2019-05-26T13:06:17.699Z,22.10
2019-05-26T13:08:43.894Z,22.10
2019-05-26T13:11:09.953Z,22.00
2019-05-26T13:13:36.051Z,21.90
2019-05-26T13:16:22.019Z,21.90
2019-05-26T13:18:48.116Z,21.90
2019-05-26T13:21:14.127Z,21.80
2019-05-26T13:23:40.159Z,21.90
2019-05-26T13:26:06.249Z,21.90
2019-05-26T13:28:32.417Z,22.00
2019-05-26T13:30:58.469Z,22.00
2019-05-26T13:33:24.496Z,22.00
2019-05-26T13:35:50.561Z,22.00
2019-05-26T13:38:16.622Z,22.10
2019-05-26T13:40:42.768Z,22.20
2019-05-26T13:43:08.820Z,22.20
2019-05-26T13:45:34.866Z,22.00
2019-05-26T13:48:00.901Z,22.10
2019-05-26T13:50:27.105Z,22.30
2019-05-26T13:52:53.129Z,22.20
2019-05-26T13:55:20.059Z,22.20
2019-05-26T13:57:49.174Z,22.30
2019-05-26T14:00:15.547Z,22.40
2019-05-26T14:02:41.902Z,22.40
2019-05-26T14:05:08.487Z,22.40
2019-05-26T14:07:34.639Z,22.60
2019-05-26T14:10:00.679Z,22.60
2019-05-26T14:12:26.778Z,22.60
2019-05-26T14:14:53.618Z,22.50
2019-05-26T14:17:20.524Z,22.40
2019-05-26T14:19:46.998Z,22.30
2019-05-26T14:22:13.056Z,22.30
2019-05-26T14:24:52.868Z,22.30
2019-05-26T14:27:07.806Z,22.20
2019-05-26T14:29:33.860Z,22.20
2019-05-26T14:31:59.884Z,22.20
2019-05-26T14:34:26.045Z,22.20
2019-05-26T14:36:52.063Z,22.30
2019-05-26T14:39:18.116Z,22.40
2019-05-26T14:41:44.293Z,22.30
2019-05-26T14:44:10.344Z,22.20
2019-05-26T14:46:36.400Z,21.90
2019-05-26T14:49:02.725Z,21.70
2019-05-26T14:51:28.981Z,21.70
2019-05-26T14:53:55.012Z,21.70
2019-05-26T14:56:21.115Z,21.70
2019-05-26T14:58:47.159Z,21.70
2019-05-26T15:01:13.224Z,21.80
2019-05-26T15:03:39.263Z,21.80
2019-05-26T15:06:06.295Z,21.70
2019-05-26T15:08:32.640Z,21.60
2019-05-26T15:10:58.705Z,21.60
2019-05-26T15:13:24.758Z,21.70
2019-05-26T15:15:50.840Z,21.80
2019-05-26T15:18:16.878Z,21.90
2019-05-26T15:20:42.941Z,22.00
2019-05-26T15:23:08.967Z,22.00
2019-05-26T15:25:35.123Z,21.90
2019-05-26T15:28:01.151Z,21.90
2019-05-26T15:30:27.186Z,21.90
2019-05-26T15:32:53.234Z,22.00
2019-05-26T15:35:19.387Z,22.00
2019-05-26T15:37:45.455Z,22.10
2019-05-26T15:40:12.080Z,22.10
2019-05-26T15:42:38.165Z,22.10
2019-05-26T15:45:05.882Z,22.00
2019-05-26T15:47:31.940Z,22.00
2019-05-26T15:49:57.958Z,22.00
2019-05-26T15:52:24.022Z,21.90
2019-05-26T15:54:50.085Z,21.80
2019-05-26T15:57:16.125Z,21.80
2019-05-26T15:59:42.299Z,21.70
2019-05-26T16:02:08.348Z,21.60
2019-05-26T16:04:34.401Z,21.60
2019-05-26T16:07:00.552Z,21.60
2019-05-26T16:09:26.617Z,21.60
2019-05-26T16:11:52.924Z,21.70
2019-05-26T16:14:18.954Z,21.70
2019-05-26T16:16:45.003Z,21.70
2019-05-26T16:19:11.070Z,21.70
2019-05-26T16:21:37.129Z,21.60
2019-05-26T16:24:03.249Z,21.50
2019-05-26T16:26:29.384Z,21.50
2019-05-26T16:28:55.485Z,21.50
2019-05-26T16:31:21.593Z,21.50
2019-05-26T16:33:47.671Z,21.50
2019-05-26T16:36:13.716Z,21.60
2019-05-26T16:38:39.789Z,21.60
2019-05-26T16:41:06.797Z,21.60
2019-05-26T16:43:32.969Z,21.50
2019-05-26T16:45:59.049Z,21.50
2019-05-26T16:48:25.117Z,21.50
2019-05-26T16:50:51.196Z,21.50
2019-05-26T16:53:17.301Z,21.50
2019-05-26T16:55:44.821Z,21.40
2019-05-26T16:58:11.110Z,21.50
2019-05-26T17:00:37.333Z,21.50
2019-05-26T17:03:03.418Z,21.60
2019-05-26T17:05:29.525Z,21.50
2019-05-26T17:07:55.555Z,21.50
2019-05-26T17:10:21.618Z,21.40
2019-05-26T17:12:47.679Z,21.40
2019-05-26T17:15:14.053Z,21.40
2019-05-26T17:17:40.222Z,21.30
2019-05-26T17:20:07.087Z,21.20
2019-05-26T17:22:33.132Z,21.20
2019-05-26T17:25:00.070Z,21.10
2019-05-26T17:27:26.258Z,21.10
2019-05-26T17:29:52.288Z,21.00
2019-05-26T17:32:18.387Z,21.00
2019-05-26T17:34:44.626Z,20.90
2019-05-26T17:37:10.680Z,20.80
2019-05-26T17:39:36.699Z,20.80
2019-05-26T17:42:03.084Z,20.80
2019-05-26T17:44:29.227Z,20.80
2019-05-26T17:46:55.309Z,20.90
2019-05-26T17:49:21.360Z,20.90
2019-05-26T17:51:47.429Z,20.80
2019-05-26T17:54:13.586Z,20.80
2019-05-26T17:56:40.091Z,20.70
2019-05-26T17:59:06.353Z,20.60
2019-05-26T18:01:32.382Z,20.50
2019-05-26T18:03:58.507Z,20.50
2019-05-26T18:06:24.600Z,20.40
2019-05-26T18:08:50.747Z,20.30
2019-05-26T18:11:16.794Z,20.30
2019-05-26T18:13:46.378Z,20.10
2019-05-26T18:16:10.861Z,20.10
2019-05-26T18:18:36.901Z,20.00
2019-05-26T18:21:03.315Z,19.90
2019-05-26T18:23:29.373Z,19.90
2019-05-26T18:25:55.507Z,19.90
2019-05-26T18:28:21.743Z,19.80
2019-05-26T18:30:47.817Z,19.80
2019-05-26T18:33:13.928Z,19.80
2019-05-26T18:35:40.002Z,19.80
2019-05-26T18:38:06.658Z,19.70
2019-05-26T18:40:32.687Z,19.70
2019-05-26T18:42:58.744Z,19.70
2019-05-26T18:45:24.771Z,19.60
2019-05-26T18:48:02.388Z,19.60
2019-05-26T18:50:18.869Z,19.50
2019-05-26T18:52:44.905Z,19.50
2019-05-26T18:55:11.407Z,19.40
2019-05-26T18:57:37.452Z,19.40
2019-05-26T19:00:08.532Z,19.30
2019-05-26T19:02:34.568Z,19.30
2019-05-26T19:05:00.629Z,19.30
2019-05-26T19:07:26.766Z,19.20
2019-05-26T19:09:52.902Z,19.00
2019-05-26T19:12:19.172Z,18.90
2019-05-26T19:14:45.232Z,18.80
2019-05-26T19:17:11.997Z,18.70
2019-05-26T19:19:38.078Z,18.70
2019-05-26T19:22:04.345Z,18.60
2019-05-26T19:24:30.475Z,18.60
2019-05-26T19:26:56.552Z,18.50
2019-05-26T19:29:22.676Z,18.40
2019-05-26T19:31:48.792Z,18.20
2019-05-26T19:34:14.824Z,18.10
2019-05-26T19:36:41.046Z,18.00
2019-05-26T19:39:08.283Z,17.90
2019-05-26T19:41:34.433Z,17.80
2019-05-26T19:44:00.521Z,17.60
2019-05-26T19:46:26.580Z,17.60
2019-05-26T19:48:52.636Z,17.50
2019-05-26T19:51:18.961Z,17.40
2019-05-26T19:53:45.007Z,17.30
2019-05-26T19:56:11.159Z,17.20
2019-05-26T19:58:37.488Z,17.10
2019-05-26T20:01:05.884Z,17.00
2019-05-26T20:03:32.002Z,17.00
2019-05-26T20:05:59.549Z,16.90
2019-05-26T20:08:25.802Z,16.90
2019-05-26T20:10:51.889Z,16.80
2019-05-26T20:13:18.105Z,16.70
2019-05-26T20:15:46.508Z,16.70
2019-05-26T20:18:12.820Z,16.70
2019-05-26T20:20:38.878Z,16.60
2019-05-26T20:23:04.967Z,16.50
2019-05-26T20:25:31.114Z,16.40
2019-05-26T20:27:57.221Z,16.40
2019-05-26T20:30:23.699Z,16.30
2019-05-26T20:32:49.852Z,16.20
2019-05-26T20:35:16.032Z,16.10
2019-05-26T20:37:42.072Z,16.10
2019-05-26T20:40:08.425Z,16.00
2019-05-26T20:42:34.590Z,15.90
2019-05-26T20:45:00.685Z,15.90
2019-05-26T20:47:26.937Z,15.80
2019-05-26T20:49:53.469Z,15.80
2019-05-26T20:52:19.635Z,15.80
2019-05-26T20:54:45.697Z,15.70
2019-05-26T20:57:11.989Z,15.60
2019-05-26T20:59:38.139Z,15.50
2019-05-26T21:02:04.537Z,15.50
2019-05-26T21:04:30.563Z,15.50
2019-05-26T21:06:56.654Z,15.40
2019-05-26T21:09:22.752Z,15.20
2019-05-26T21:11:48.826Z,15.10
2019-05-26T21:14:15.126Z,15.10
2019-05-26T21:16:41.314Z,14.90
2019-05-26T21:19:07.399Z,14.90
2019-05-26T21:21:33.529Z,14.80
2019-05-26T21:23:59.711Z,14.70
2019-05-26T21:26:25.754Z,14.70
2019-05-26T21:28:51.933Z,14.70
2019-05-26T21:31:18.001Z,14.60
2019-05-26T21:33:44.085Z,14.70
2019-05-26T21:36:10.144Z,14.60
2019-05-26T21:38:36.229Z,14.60
2019-05-26T21:41:03.374Z,14.50
2019-05-26T21:43:29.651Z,14.60
2019-05-26T21:45:55.713Z,14.40
2019-05-26T21:48:21.793Z,14.40
2019-05-26T21:50:47.837Z,14.30
2019-05-26T21:53:13.947Z,14.30
2019-05-26T21:55:40.078Z,14.30
2019-05-26T21:58:06.159Z,14.30
2019-05-26T22:00:34.228Z,14.20
2019-05-26T22:03:00.280Z,14.20
2019-05-26T22:05:26.333Z,14.10
2019-05-26T22:07:52.670Z,14.10
2019-05-26T22:10:18.960Z,14.00
2019-05-26T22:12:45.316Z,13.80
2019-05-26T22:15:12.439Z,13.80
2019-05-26T22:17:38.945Z,13.80
2019-05-26T22:20:05.933Z,13.70
2019-05-26T22:22:32.052Z,13.60
2019-05-26T22:24:59.005Z,13.60
2019-05-26T22:27:25.183Z,13.60
2019-05-26T22:29:51.348Z,13.50
2019-05-26T22:32:17.393Z,13.50
2019-05-26T22:34:43.496Z,13.40
2019-05-26T22:37:09.527Z,13.40
2019-05-26T22:39:35.716Z,13.30
2019-05-26T22:42:03.640Z,13.20
2019-05-26T22:44:29.822Z,13.20
2019-05-26T22:46:55.897Z,13.10
2019-05-26T22:52:23.164Z,13.00
2019-05-26T22:54:49.741Z,13.00
2019-05-26T22:57:16.129Z,12.90
2019-05-26T22:59:42.550Z,12.90
2019-05-26T23:02:11.744Z,12.80
2019-05-26T23:04:37.836Z,12.70
2019-05-26T23:07:03.964Z,12.70
2019-05-26T23:09:30.826Z,12.70
2019-05-26T23:11:59.164Z,12.70
2019-05-26T23:14:25.318Z,12.60
2019-05-26T23:16:51.610Z,12.60
2019-05-26T23:19:19.705Z,12.60
2019-05-26T23:21:46.635Z,12.50
2019-05-26T23:24:12.807Z,12.50
2019-05-26T23:26:38.965Z,12.40
2019-05-26T23:29:05.242Z,12.40
2019-05-26T23:31:31.388Z,12.30
2019-05-26T23:33:57.520Z,12.30
2019-05-26T23:36:26.060Z,12.20
2019-05-26T23:38:52.267Z,12.10
2019-05-26T23:41:20.474Z,12.10
2019-05-26T23:43:46.692Z,12.10
2019-05-26T23:46:14.858Z,12.00
2019-05-26T23:48:43.358Z,12.00
2019-05-26T23:51:09.466Z,12.00
2019-05-26T23:53:35.623Z,12.00
2019-05-26T23:56:01.901Z,11.90
2019-05-26T23:58:27.970Z,12.00
